Time;durP1;ratioP1;P1;durP2;ratioP2;P2;SDS_P1;SDS_P2;PMS_P1;PMS_P2;Temp;Humidity;BMP_temperature;BMP_pressure;BME280_temperature;BME280_humidity;BME280_pressure;Samples;Min_cycle;Max_cycle;Signal;HPM_P1;HPM_P2
2023/07/19 00:01:33;;;;;;;6.03;0.90;;;;;;;18.71;100.00;100681.91;5090818;28;20036;-74
2023/07/19 00:04:19;;;;;;;2.50;0.85;;;;;;;18.67;100.00;100686.59;5093236;28;20529;-74
2023/07/19 00:07:05;;;;;;;3.35;0.63;;;;;;;18.62;100.00;100681.19;5043469;28;20129;-74
2023/07/19 00:09:50;;;;;;;3.15;0.80;;;;;;;18.58;100.00;100689.47;5074749;28;20031;-74
2023/07/19 00:12:36;;;;;;;3.28;1.02;;;;;;;18.56;100.00;100691.00;5053795;28;20496;-74
2023/07/19 00:15:23;;;;;;;3.55;1.05;;;;;;;18.51;100.00;100690.03;5067568;28;20479;-74
2023/07/19 00:18:08;;;;;;;2.25;0.73;;;;;;;18.48;100.00;100690.72;5060780;28;20067;-74
2023/07/19 00:20:55;;;;;;;3.55;0.98;;;;;;;18.43;100.00;100696.53;5075101;28;20034;-74
2023/07/19 00:23:42;;;;;;;3.13;0.75;;;;;;;18.40;100.00;100693.59;5090715;28;20504;-74
2023/07/19 00:26:27;;;;;;;1.42;0.60;;;;;;;18.34;100.00;100695.81;5064947;28;20471;-74
2023/07/19 00:29:13;;;;;;;2.55;1.00;;;;;;;18.31;100.00;100696.47;5070203;28;20040;-74
2023/07/19 00:31:59;;;;;;;4.00;0.90;;;;;;;18.24;100.00;100691.38;5075552;28;20063;-74
2023/07/19 00:34:45;;;;;;;5.22;1.05;;;;;;;18.20;100.00;100686.81;5054030;28;20024;-74
2023/07/19 00:37:31;;;;;;;4.85;0.90;;;;;;;18.16;100.00;100694.25;5074490;28;20092;-74
2023/07/19 00:40:17;;;;;;;2.20;0.80;;;;;;;18.14;100.00;100691.00;5070305;28;20405;-74
2023/07/19 00:43:11;;;;;;;4.57;1.00;;;;;;;18.11;100.00;100686.03;5063616;28;20103;-74
2023/07/19 00:45:56;;;;;;;5.18;1.08;;;;;;;18.06;100.00;100698.31;5075241;28;20126;-74
2023/07/19 00:48:42;;;;;;;2.90;1.02;;;;;;;18.02;100.00;100700.94;5065470;28;20396;-74
2023/07/19 00:51:30;;;;;;;4.43;1.13;;;;;;;17.96;100.00;100693.06;5076391;28;20534;-74
2023/07/19 00:54:16;;;;;;;6.57;1.02;;;;;;;17.92;100.00;100695.75;5080555;28;20027;-74
2023/07/19 00:57:03;;;;;;;5.60;0.93;;;;;;;17.92;100.00;100692.13;5061124;28;20479;-74
2023/07/19 00:59:48;;;;;;;2.72;0.80;;;;;;;17.89;100.00;100699.22;5074156;28;20032;-74
2023/07/19 01:02:34;;;;;;;3.88;0.80;;;;;;;17.85;100.00;100701.06;5077319;28;20488;-74
2023/07/19 01:05:20;;;;;;;3.38;0.93;;;;;;;17.81;100.00;100694.47;5075132;28;20089;-74
2023/07/19 01:08:06;;;;;;;1.85;0.93;;;;;;;17.78;100.00;100693.19;5060750;28;20032;-74
2023/07/19 01:10:52;;;;;;;2.80;0.60;;;;;;;17.74;100.00;100694.97;5070364;28;20080;-74
2023/07/19 01:13:37;;;;;;;1.50;0.57;;;;;;;17.71;100.00;100689.22;5074749;28;20404;-74
2023/07/19 01:16:23;;;;;;;2.35;0.68;;;;;;;17.65;100.00;100692.19;5102745;28;20028;-74
2023/07/19 01:19:09;;;;;;;3.72;1.00;;;;;;;17.65;100.00;100695.00;5074761;28;20032;-74
2023/07/19 01:21:55;;;;;;;3.13;1.00;;;;;;;17.62;100.00;100689.25;5112109;28;20050;-74
2023/07/19 01:24:41;;;;;;;3.13;0.77;;;;;;;17.58;100.00;100691.91;5097009;28;20059;-74
2023/07/19 01:27:27;;;;;;;3.30;0.98;;;;;;;17.56;100.00;100691.44;5097055;28;20039;-74
2023/07/19 01:30:13;;;;;;;2.85;0.70;;;;;;;17.54;100.00;100693.75;5108429;28;20035;-74
2023/07/19 01:32:59;;;;;;;3.30;1.05;;;;;;;17.51;100.00;100688.78;5083470;28;20035;-74
2023/07/19 01:35:45;;;;;;;2.47;0.90;;;;;;;17.48;100.00;100699.88;5076156;28;20081;-74
2023/07/19 01:38:31;;;;;;;2.67;1.10;;;;;;;17.45;100.00;100692.13;5086975;28;20032;-74
2023/07/19 01:41:16;;;;;;;4.07;1.00;;;;;;;17.43;100.00;100695.25;5078036;28;20035;-74
2023/07/19 01:44:02;;;;;;;3.70;0.80;;;;;;;17.43;100.00;100698.06;5077459;28;20039;-74
2023/07/19 01:46:48;;;;;;;6.32;0.80;;;;;;;17.42;100.00;100696.44;5077062;28;20101;-74
2023/07/19 01:49:34;;;;;;;2.83;0.90;;;;;;;17.41;100.00;100687.19;5094270;28;20089;-75
2023/07/19 01:52:20;;;;;;;3.17;0.70;;;;;;;17.41;100.00;100687.19;5099624;28;20047;-75
2023/07/19 01:55:06;;;;;;;2.60;0.70;;;;;;;17.41;100.00;100686.34;5096175;28;20080;-75
2023/07/19 01:57:52;;;;;;;5.68;1.13;;;;;;;17.42;100.00;100688.03;5078565;28;20099;-75
2023/07/19 02:00:38;;;;;;;3.10;0.85;;;;;;;17.42;100.00;100693.63;5090141;28;20085;-75
2023/07/19 02:03:24;;;;;;;1.75;0.80;;;;;;;17.43;100.00;100678.41;5104292;28;20035;-75
2023/07/19 02:06:09;;;;;;;4.57;0.60;;;;;;;17.47;100.00;100681.38;5094548;28;20046;-75
2023/07/19 02:08:56;;;;;;;3.22;0.90;;;;;;;17.49;100.00;100679.06;5079092;28;20552;-75
2023/07/19 02:11:41;;;;;;;3.13;0.90;;;;;;;17.51;100.00;100676.75;5089067;28;20028;-75
2023/07/19 02:14:27;;;;;;;5.32;1.10;;;;;;;17.53;100.00;100689.28;5083666;28;20039;-75
2023/07/19 02:17:13;;;;;;;3.53;0.80;;;;;;;17.54;100.00;100679.69;5094809;28;20028;-75
2023/07/19 02:19:59;;;;;;;2.58;1.10;;;;;;;17.57;100.00;100681.81;5077958;28;20042;-75
2023/07/19 02:22:46;;;;;;;3.28;0.68;;;;;;;17.59;100.00;100681.50;5093688;28;20038;-75
2023/07/19 02:25:32;;;;;;;3.47;1.00;;;;;;;17.62;100.00;100680.81;5112800;28;20046;-75
2023/07/19 02:28:17;;;;;;;3.22;0.82;;;;;;;17.62;100.00;100683.63;5106825;28;20475;-75
2023/07/19 02:31:03;;;;;;;3.03;0.77;;;;;;;17.64;100.00;100684.13;5090996;28;20031;-75
2023/07/19 02:33:49;;;;;;;2.50;0.68;;;;;;;17.64;100.00;100682.13;5094033;28;20064;-75
2023/07/19 02:36:35;;;;;;;1.63;0.70;;;;;;;17.66;100.00;100687.41;5081454;28;20043;-75
2023/07/19 02:39:21;;;;;;;3.42;0.80;;;;;;;17.68;100.00;100679.47;5092991;28;20043;-75
2023/07/19 02:42:06;;;;;;;2.13;0.88;;;;;;;17.71;100.00;100677.97;5108584;28;20035;-75
2023/07/19 02:44:52;;;;;;;2.65;0.77;;;;;;;17.72;100.00;100676.78;5071872;28;20024;-75
2023/07/19 02:47:38;;;;;;;3.65;0.88;;;;;;;17.75;100.00;100681.78;5080899;28;20024;-75
2023/07/19 02:50:24;;;;;;;5.10;0.80;;;;;;;17.78;100.00;100678.28;5099482;28;20046;-75
2023/07/19 02:53:10;;;;;;;4.30;0.93;;;;;;;17.78;100.00;100681.09;5112689;28;20436;-75
2023/07/19 02:55:56;;;;;;;4.28;1.00;;;;;;;17.81;100.00;100683.25;5081403;28;20027;-75
2023/07/19 02:58:42;;;;;;;2.88;1.00;;;;;;;17.81;100.00;100684.06;5079519;28;20088;-75
2023/07/19 03:01:27;;;;;;;4.47;1.10;;;;;;;17.86;100.00;100681.06;5110981;28;20032;-75
2023/07/19 03:04:13;;;;;;;3.15;0.80;;;;;;;17.85;100.00;100685.03;5100621;28;20400;-75
2023/07/19 03:06:59;;;;;;;2.75;0.90;;;;;;;17.87;100.00;100679.06;5117243;28;20609;-74
2023/07/19 03:09:45;;;;;;;2.47;0.90;;;;;;;17.89;100.00;100673.94;5099924;28;20410;-75
2023/07/19 03:12:31;;;;;;;3.50;0.90;;;;;;;17.88;100.00;100677.91;5085171;28;20575;-75
2023/07/19 03:15:16;;;;;;;1.55;0.60;;;;;;;17.95;100.00;100674.56;5065329;28;20032;-75
2023/07/19 03:18:03;;;;;;;2.97;0.90;;;;;;;17.92;100.00;100680.88;5107337;28;20169;-75
2023/07/19 03:20:58;;;;;;;4.30;1.10;;;;;;;17.94;100.00;100676.56;5091172;28;20040;-75
2023/07/19 03:23:43;;;;;;;2.22;0.90;;;;;;;17.93;100.00;100674.91;5084815;28;20059;-75
2023/07/19 03:26:29;;;;;;;4.22;1.15;;;;;;;17.95;100.00;100677.38;5108403;28;20184;-75
2023/07/19 03:29:15;;;;;;;2.80;1.00;;;;;;;17.94;100.00;100682.19;5098288;28;20028;-74
2023/07/19 03:32:01;;;;;;;2.85;0.70;;;;;;;17.93;100.00;100683.31;5075774;28;20032;-75
2023/07/19 03:34:47;;;;;;;4.28;1.10;;;;;;;17.93;100.00;100680.53;5080781;28;20035;-75
2023/07/19 03:37:34;;;;;;;4.65;1.30;;;;;;;17.93;100.00;100691.75;5091366;28;20572;-75
2023/07/19 03:40:20;;;;;;;5.47;1.10;;;;;;;17.98;100.00;100694.38;5075241;28;20151;-75
2023/07/19 03:43:06;;;;;;;4.20;1.00;;;;;;;17.97;100.00;100689.09;5104563;28;20024;-75
2023/07/19 03:45:51;;;;;;;2.80;0.82;;;;;;;17.96;100.00;100696.69;5100519;28;20077;-75
2023/07/19 03:48:37;;;;;;;3.22;1.10;;;;;;;17.95;100.00;100695.06;5100756;28;20061;-75
2023/07/19 03:51:23;;;;;;;1.50;0.90;;;;;;;17.96;100.00;100691.06;5099587;28;20039;-75
2023/07/19 03:54:09;;;;;;;3.53;0.88;;;;;;;17.94;100.00;100690.63;5078251;28;20066;-75
2023/07/19 03:56:55;;;;;;;2.60;1.10;;;;;;;17.96;100.00;100696.69;5075888;28;20030;-78
2023/07/19 03:59:40;;;;;;;3.22;1.00;;;;;;;17.96;100.00;100688.28;5075226;28;20028;-75
2023/07/19 04:02:27;;;;;;;3.15;0.90;;;;;;;17.97;100.00;100692.75;5081726;28;20035;-75
2023/07/19 04:05:12;;;;;;;3.35;0.95;;;;;;;17.96;100.00;100696.69;5104846;28;20043;-75
2023/07/19 04:08:01;;;;;;;3.53;1.20;;;;;;;17.96;100.00;100701.50;5095048;28;20043;-75
2023/07/19 04:10:46;;;;;;;2.53;1.00;;;;;;;17.95;100.00;100702.66;5092953;28;20036;-75
2023/07/19 04:13:32;;;;;;;3.22;1.05;;;;;;;17.96;100.00;100695.88;5071083;28;20052;-75
2023/07/19 04:16:18;;;;;;;1.95;1.13;;;;;;;17.95;100.00;100697.88;5097220;28;20075;-75
2023/07/19 04:19:04;;;;;;;5.53;1.20;;;;;;;17.93;100.00;100705.00;5096924;28;20031;-75
2023/07/19 04:21:50;;;;;;;3.60;0.98;;;;;;;17.91;100.00;100707.31;5068189;28;20031;-75
2023/07/19 04:24:36;;;;;;;3.28;1.17;;;;;;;17.92;100.00;100703.34;5089602;28;20031;-75
2023/07/19 04:27:21;;;;;;;4.95;1.17;;;;;;;17.88;100.00;100708.00;5107111;28;20111;-75
2023/07/19 04:30:08;;;;;;;3.03;0.90;;;;;;;17.88;100.00;100708.81;5097434;28;20035;-75
2023/07/19 04:32:54;;;;;;;2.42;1.00;;;;;;;17.85;100.00;100709.47;5083308;28;20024;-75
2023/07/19 04:35:41;;;;;;;3.45;1.10;;;;;;;17.82;100.00;100702.56;5074988;28;20043;-75
2023/07/19 04:38:28;;;;;;;3.63;1.10;;;;;;;17.80;100.00;100715.28;5094472;28;20053;-75
2023/07/19 04:41:13;;;;;;;3.65;0.80;;;;;;;17.80;100.00;100709.66;5082644;28;20031;-75
2023/07/19 04:43:59;;;;;;;4.43;1.10;;;;;;;17.77;100.00;100710.31;5074524;28;20086;-75
2023/07/19 04:46:45;;;;;;;2.08;0.98;;;;;;;17.76;100.00;100715.13;5080762;28;20032;-75
2023/07/19 04:49:31;;;;;;;4.63;1.20;;;;;;;17.73;100.00;100712.16;5094239;28;20028;-75
2023/07/19 04:52:17;;;;;;;2.30;1.08;;;;;;;17.71;100.00;100709.69;5117350;28;20046;-74
2023/07/19 04:55:03;;;;;;;2.90;1.27;;;;;;;17.71;100.00;100711.69;5107631;28;20027;-75
2023/07/19 04:57:49;;;;;;;4.45;1.10;;;;;;;17.71;100.00;100720.91;5083196;28;20035;-75
2023/07/19 05:00:35;;;;;;;3.13;1.05;;;;;;;17.69;100.00;100719.59;5116252;28;20063;-75
2023/07/19 05:03:22;;;;;;;3.75;1.10;;;;;;;17.72;100.00;100716.13;5112449;28;20039;-75
2023/07/19 05:06:07;;;;;;;5.68;1.13;;;;;;;17.70;100.00;100710.84;5094159;28;20127;-75
2023/07/19 05:08:53;;;;;;;3.20;1.00;;;;;;;17.68;100.00;100727.22;5079724;28;20064;-75
2023/07/19 05:11:39;;;;;;;4.97;1.15;;;;;;;17.71;100.00;100714.47;5103974;28;20036;-75
2023/07/19 05:14:26;;;;;;;2.60;0.90;;;;;;;17.75;100.00;100718.28;5096046;28;20059;-75
2023/07/19 05:17:12;;;;;;;1.88;0.80;;;;;;;17.74;100.00;100717.44;5088401;28;20032;-75
2023/07/19 05:19:58;;;;;;;2.13;1.13;;;;;;;17.76;100.00;100714.31;5076429;28;20119;-75
2023/07/19 05:22:44;;;;;;;3.72;1.30;;;;;;;17.80;100.00;100715.28;5105871;28;20063;-75
2023/07/19 05:25:31;;;;;;;3.63;1.40;;;;;;;17.79;100.00;100717.28;5081890;28;20032;-75
2023/07/19 05:28:18;;;;;;;2.58;1.25;;;;;;;17.80;100.00;100727.38;5086035;28;20476;-75
2023/07/19 05:31:04;;;;;;;3.60;1.17;;;;;;;17.81;100.00;100726.19;5099748;28;20023;-75
2023/07/19 05:33:49;;;;;;;2.33;1.02;;;;;;;17.84;100.00;100733.13;5090712;28;20023;-75
2023/07/19 05:36:37;;;;;;;2.45;1.00;;;;;;;17.85;100.00;100729.97;5105669;28;20058;-75
2023/07/19 05:39:23;;;;;;;2.38;1.20;;;;;;;17.85;100.00;100723.53;5062665;28;20035;-75
2023/07/19 05:42:09;;;;;;;3.25;1.00;;;;;;;17.89;100.00;100734.94;5090500;28;20213;-75
2023/07/19 05:44:55;;;;;;;2.72;1.20;;;;;;;17.93;100.00;100730.28;5082440;28;20028;-75
2023/07/19 05:47:41;;;;;;;2.13;1.00;;;;;;;17.93;100.00;100731.09;5082966;28;20032;-75
2023/07/19 05:50:27;;;;;;;2.60;0.90;;;;;;;17.95;100.00;100725.97;5100630;28;20511;-75
2023/07/19 05:53:13;;;;;;;2.65;1.40;;;;;;;17.97;100.00;100729.28;5099638;28;20043;-75
2023/07/19 05:55:59;;;;;;;2.75;1.02;;;;;;;18.00;100.00;100717.34;5063667;28;20039;-75
2023/07/19 05:58:45;;;;;;;3.30;1.30;;;;;;;18.05;100.00;100722.78;5101148;28;20089;-75
2023/07/19 06:01:31;;;;;;;3.30;1.20;;;;;;;18.12;100.00;100715.78;5085766;28;20031;-75
2023/07/19 06:04:16;;;;;;;3.33;1.00;;;;;;;18.16;100.00;100728.81;5110421;28;20055;-75
2023/07/19 06:07:03;;;;;;;3.03;1.30;;;;;;;18.24;100.00;100725.13;5078184;28;20047;-75
2023/07/19 06:09:49;;;;;;;5.93;1.50;;;;;;;18.30;100.00;100732.22;5078198;28;20124;-75
2023/07/19 06:12:35;;;;;;;5.00;1.27;;;;;;;18.40;100.00;100730.16;5095487;28;20119;-75
2023/07/19 06:15:21;;;;;;;3.45;1.02;;;;;;;18.48;100.00;100737.72;5082366;28;20190;-75
2023/07/19 06:18:06;;;;;;;2.72;1.30;;;;;;;18.58;100.00;100734.47;5093511;28;20110;-75
2023/07/19 06:20:52;;;;;;;6.00;1.33;;;;;;;18.68;100.00;100734.06;5111229;28;20032;-75
2023/07/19 06:23:38;;;;;;;3.00;1.10;;;;;;;18.77;100.00;100744.47;5100566;28;20034;-75
2023/07/19 06:26:24;;;;;;;3.42;1.40;;;;;;;18.88;100.00;100742.88;5100671;27;20389;-74
2023/07/19 06:29:10;;;;;;;4.97;1.38;;;;;;;18.97;100.00;100746.41;5096034;28;20035;-76
2023/07/19 06:31:55;;;;;;;2.40;1.13;;;;;;;19.06;100.00;100741.56;5106921;28;20381;-76
2023/07/19 06:34:42;;;;;;;3.20;1.60;;;;;;;19.14;100.00;100742.66;5080014;28;20471;-76
2023/07/19 06:37:27;;;;;;;3.28;1.30;;;;;;;19.25;100.00;100749.47;5103258;28;20035;-76
2023/07/19 06:40:13;;;;;;;4.95;1.58;;;;;;;19.30;100.00;100748.41;5099340;28;20036;-76
2023/07/19 06:42:59;;;;;;;2.70;1.42;;;;;;;19.40;100.00;100743.19;5084854;28;20028;-76
2023/07/19 06:45:46;;;;;;;3.42;1.10;;;;;;;19.49;100.00;100739.44;5099846;28;20024;-76
2023/07/19 06:48:31;;;;;;;6.30;1.88;;;;;;;19.58;100.00;100740.97;5087750;28;20034;-76
2023/07/19 06:51:17;;;;;;;5.85;1.63;;;;;;;19.66;100.00;100744.06;5085864;28;20093;-77
2023/07/19 06:54:03;;;;;;;2.63;1.48;;;;;;;19.74;100.00;100745.97;5063067;28;20083;-76
2023/07/19 06:56:49;;;;;;;5.70;1.23;;;;;;;19.82;100.00;100745.84;5090638;28;20557;-76
2023/07/19 06:59:35;;;;;;;4.47;1.50;;;;;;;19.91;100.00;100739.28;5099251;28;20062;-76
2023/07/19 07:02:21;;;;;;;5.60;1.77;;;;;;;20.01;100.00;100744.47;5094156;28;20399;-76
2023/07/19 07:05:10;;;;;;;5.25;1.92;;;;;;;20.08;100.00;100741.88;5076125;28;20522;-76
2023/07/19 07:07:56;;;;;;;5.28;1.77;;;;;;;20.19;100.00;100743.03;5076197;28;20120;-77
2023/07/19 07:10:44;;;;;;;6.18;1.75;;;;;;;20.29;100.00;100751.03;5079205;28;20126;-77
2023/07/19 07:13:30;;;;;;;6.82;2.17;;;;;;;20.38;100.00;100744.44;5065187;28;20051;-76
2023/07/19 07:16:16;;;;;;;4.65;1.60;;;;;;;20.47;100.00;100751.56;5094080;28;20040;-76
2023/07/19 07:19:02;;;;;;;3.88;1.40;;;;;;;20.54;100.00;100751.03;5078202;28;20549;-76
2023/07/19 07:21:48;;;;;;;4.22;1.70;;;;;;;20.62;100.00;100747.25;5066926;28;20377;-76
2023/07/19 07:24:34;;;;;;;5.28;1.67;;;;;;;20.70;100.00;100757.56;5086374;28;20036;-76
2023/07/19 07:27:20;;;;;;;5.03;1.55;;;;;;;20.83;100.00;100763.97;5093263;28;20075;-76
2023/07/19 07:30:08;;;;;;;3.42;1.58;;;;;;;20.94;100.00;100758.66;5094739;28;20027;-76
2023/07/19 07:32:54;;;;;;;4.70;1.83;;;;;;;21.03;100.00;100756.50;5085804;28;20042;-76
2023/07/19 07:35:40;;;;;;;6.28;1.90;;;;;;;21.12;100.00;100760.00;5105958;28;20055;-77
2023/07/19 07:38:26;;;;;;;3.45;1.60;;;;;;;21.22;100.00;100757.84;5088411;28;20036;-77
2023/07/19 07:41:12;;;;;;;4.47;1.80;;;;;;;21.30;100.00;100763.31;5062859;28;20324;-76
2023/07/19 07:43:58;;;;;;;6.78;1.90;;;;;;;21.38;100.00;100759.53;5074031;28;20043;-77
2023/07/19 07:46:46;;;;;;;4.88;1.98;;;;;;;21.48;100.00;100761.03;5095148;28;20384;-77
2023/07/19 07:49:32;;;;;;;5.13;1.70;;;;;;;21.54;100.00;100758.75;5083148;28;20043;-76
2023/07/19 07:52:19;;;;;;;7.00;1.85;;;;;;;21.60;100.00;100762.97;5072497;28;20110;-76
2023/07/19 07:55:06;;;;;;;3.15;1.80;;;;;;;21.67;100.00;100763.13;5088895;28;20038;-77
2023/07/19 07:57:52;;;;;;;3.83;1.63;;;;;;;21.71;100.00;100757.59;5098298;28;20117;-77
2023/07/19 08:00:38;;;;;;;3.65;1.65;;;;;;;21.73;100.00;100756.03;5091706;28;20476;-76
2023/07/19 08:03:24;;;;;;;4.95;1.70;;;;;;;21.78;100.00;100763.41;5075835;28;20049;-77
2023/07/19 08:06:09;;;;;;;5.03;1.70;;;;;;;21.82;100.00;100765.16;5109062;28;20032;-77
2023/07/19 08:08:55;;;;;;;5.95;2.00;;;;;;;21.84;100.00;100761.94;5080714;28;20054;-77
2023/07/19 08:11:41;;;;;;;5.32;1.60;;;;;;;21.84;100.00;100759.13;5090179;28;20035;-77
2023/07/19 08:14:27;;;;;;;4.07;1.63;;;;;;;21.87;100.00;100769.72;5095759;28;20043;-76
2023/07/19 08:17:12;;;;;;;4.60;1.80;;;;;;;21.90;100.00;100765.31;5078414;28;20024;-76
2023/07/19 08:19:58;;;;;;;5.82;1.55;;;;;;;21.94;100.00;100758.59;5082107;28;20066;-76
2023/07/19 08:22:44;;;;;;;5.05;1.67;;;;;;;21.96;100.00;100753.41;5075581;28;20532;-77
2023/07/19 08:25:30;;;;;;;3.60;1.67;;;;;;;22.01;100.00;100758.78;5091305;28;20043;-77
2023/07/19 08:28:16;;;;;;;3.78;1.48;;;;;;;22.07;100.00;100759.31;5064996;28;20028;-76
2023/07/19 08:31:02;;;;;;;2.85;1.60;;;;;;;22.08;100.00;100763.78;5089888;28;20091;-77
2023/07/19 08:33:47;;;;;;;3.55;1.60;;;;;;;22.08;100.00;100761.75;5112083;28;20027;-77
2023/07/19 08:36:33;;;;;;;6.30;1.65;;;;;;;22.06;100.00;100757.66;5092142;28;20176;-77
2023/07/19 08:39:19;;;;;;;5.38;1.60;;;;;;;22.06;100.00;100767.00;5075767;28;20111;-74
2023/07/19 08:42:06;;;;;;;6.88;1.77;;;;;;;21.98;100.00;100764.31;5105922;28;20483;-75
2023/07/19 08:44:51;;;;;;;7.10;1.80;;;;;;;22.00;100.00;100765.59;5082758;28;20071;-76
2023/07/19 08:47:38;;;;;;;4.68;1.75;;;;;;;22.01;100.00;100763.63;5064837;28;20035;-76
2023/07/19 08:50:24;;;;;;;2.85;1.38;;;;;;;22.02;100.00;100754.75;5083092;28;20391;-76
2023/07/19 08:53:09;;;;;;;6.40;1.60;;;;;;;22.09;100.00;100756.91;5075715;28;20101;-76
2023/07/19 08:55:56;;;;;;;2.65;1.30;;;;;;;22.15;100.00;100754.63;5078499;28;20042;-76
2023/07/19 08:58:43;;;;;;;3.28;1.55;;;;;;;22.21;100.00;100762.53;5073633;28;20045;-76
2023/07/19 09:01:29;;;;;;;3.53;1.35;;;;;;;22.29;100.00;100755.84;5093828;28;20027;-76
2023/07/19 09:04:15;;;;;;;4.60;1.30;;;;;;;22.33;100.00;100755.09;5090274;28;20032;-76
2023/07/19 09:07:02;;;;;;;3.55;1.40;;;;;;;22.35;99.47;100745.06;5080442;28;20464;-75
2023/07/19 09:09:53;;;;;;;4.78;1.63;;;;;;;22.40;97.98;100747.63;5098892;28;20407;-76
2023/07/19 09:12:43;;;;;;;5.70;1.35;;;;;;;22.44;96.25;100742.84;5083037;28;20055;-76
2023/07/19 09:15:28;;;;;;;3.00;1.40;;;;;;;22.44;93.89;100740.00;5078259;28;20483;-76
2023/07/19 09:18:14;;;;;;;2.72;1.25;;;;;;;22.52;92.19;100736.16;5089258;28;20047;-76
2023/07/19 09:21:00;;;;;;;4.22;1.15;;;;;;;22.61;91.55;100741.59;5074518;28;20060;-76
2023/07/19 09:23:46;;;;;;;4.63;1.30;;;;;;;22.67;89.71;100736.47;5097314;28;20067;-76
2023/07/19 09:26:52;;;;;;;3.88;1.17;;;;;;;22.78;89.17;100743.19;5062735;28;20024;-76
2023/07/19 09:29:38;;;;;;;2.58;1.30;;;;;;;22.90;88.50;100745.88;5061610;28;20031;-76
2023/07/19 09:32:24;;;;;;;2.25;1.20;;;;;;;23.02;86.96;100746.97;5087826;28;20035;-76
2023/07/19 09:35:10;;;;;;;3.47;1.13;;;;;;;22.98;85.37;100752.53;5082436;28;20028;-76
2023/07/19 09:37:55;;;;;;;3.35;1.13;;;;;;;23.00;84.85;100749.34;5078280;28;20032;-77
2023/07/19 09:40:41;;;;;;;3.63;1.27;;;;;;;23.01;84.98;100745.31;5089428;28;20039;-76
2023/07/19 09:43:27;;;;;;;3.45;1.30;;;;;;;23.04;84.89;100753.06;5079980;28;20034;-77
2023/07/19 09:46:13;;;;;;;3.80;1.40;;;;;;;23.03;84.76;100745.75;5078252;28;20043;-77
2023/07/19 09:48:59;;;;;;;2.35;1.20;;;;;;;23.03;84.33;100748.59;5072655;28;20073;-77
2023/07/19 09:51:45;;;;;;;2.47;1.20;;;;;;;23.02;84.97;100758.28;5097632;28;20488;-77
2023/07/19 09:54:34;;;;;;;2.35;1.02;;;;;;;23.02;84.83;100744.13;5077857;28;20125;-77
2023/07/19 09:57:22;;;;;;;2.13;1.20;;;;;;;23.08;85.79;100749.09;5062790;28;20118;-76
2023/07/19 10:00:09;;;;;;;3.72;1.40;;;;;;;23.18;84.46;100751.34;5092093;28;20039;-76
2023/07/19 10:02:55;;;;;;;3.30;1.30;;;;;;;23.29;84.29;100747.88;5074776;28;20036;-76
2023/07/19 10:05:43;;;;;;;2.58;1.13;;;;;;;23.42;83.65;100744.50;5065908;28;20047;-75
2023/07/19 10:08:28;;;;;;;3.63;1.20;;;;;;;23.53;82.48;100749.56;5086923;28;20058;-76
2023/07/19 10:11:21;;;;;;;4.72;1.10;;;;;;;23.62;81.67;100753.81;5096377;28;20040;-76
2023/07/19 10:14:06;;;;;;;2.93;1.20;;;;;;;23.69;80.03;100747.44;5079810;28;20047;-76
2023/07/19 10:16:59;;;;;;;2.50;1.40;;;;;;;23.86;79.79;100751.81;5062719;28;20032;-76
2023/07/19 10:20:04;;;;;;;;;;;;;;;23.95;78.93;100754.38;5105023;28;20110;-76
2023/07/19 10:22:52;;;;;;;2.05;1.20;;;;;;;24.02;78.04;100758.16;5114034;28;19939;-76
2023/07/19 10:25:45;;;;;;;2.60;1.30;;;;;;;24.08;78.52;100764.34;5099891;28;20044;-77
2023/07/19 10:28:30;;;;;;;;;;;;;;;24.16;78.09;100765.28;5083398;28;20114;-76
2023/07/19 10:31:17;;;;;;;2.47;1.10;;;;;;;24.20;77.97;100757.63;5087133;28;19912;-76
2023/07/19 10:34:03;;;;;;;2.53;1.33;;;;;;;24.18;79.77;100766.53;5095736;28;20031;-76
2023/07/19 10:36:50;;;;;;;3.28;1.40;;;;;;;24.20;79.21;100766.97;5096610;28;20062;-76
2023/07/19 10:39:35;;;;;;;2.53;1.23;;;;;;;24.21;80.26;100757.25;5095261;28;20032;-76
2023/07/19 10:42:21;;;;;;;3.03;1.30;;;;;;;24.20;80.71;100760.47;5091195;28;20040;-73
2023/07/19 10:45:08;;;;;;;2.65;1.17;;;;;;;24.21;81.68;100759.25;5106371;28;20057;-76
2023/07/19 10:47:58;;;;;;;1.80;1.05;;;;;;;24.22;80.12;100761.72;5069532;28;20483;-76
2023/07/19 10:50:44;;;;;;;1.95;1.13;;;;;;;24.24;80.10;100770.69;5077585;28;20057;-77
2023/07/19 10:53:45;;;;;;;1.83;1.02;;;;;;;24.28;80.18;100768.72;5082442;27;20031;-76
2023/07/19 10:56:32;;;;;;;2.38;1.10;;;;;;;24.37;79.94;100764.78;5084958;28;20105;-76
2023/07/19 10:59:19;;;;;;;3.33;1.20;;;;;;;24.49;81.17;100767.44;5081477;28;20095;-77
2023/07/19 11:02:05;;;;;;;3.05;1.17;;;;;;;24.61;80.00;100764.38;5091312;28;20153;-76
2023/07/19 11:04:51;;;;;;;2.28;0.95;;;;;;;24.81;78.78;100758.56;5090480;28;20066;-76
2023/07/19 11:07:37;;;;;;;1.90;1.10;;;;;;;24.86;78.34;100756.19;5097088;28;20519;-76
2023/07/19 11:10:25;;;;;;;2.63;1.20;;;;;;;24.97;77.14;100759.19;5057611;28;20432;-77
2023/07/19 11:13:13;;;;;;;3.17;1.20;;;;;;;25.04;77.19;100752.75;5062417;28;20047;-76
2023/07/19 11:15:59;;;;;;;2.50;1.15;;;;;;;25.16;76.20;100756.19;5075694;28;20036;-77
2023/07/19 11:18:45;;;;;;;3.20;1.17;;;;;;;25.29;75.27;100758.75;5114028;28;20040;-76
2023/07/19 11:21:31;;;;;;;3.03;1.10;;;;;;;25.33;74.90;100751.13;5104233;28;20035;-76
2023/07/19 11:24:17;;;;;;;4.97;1.33;;;;;;;25.34;75.42;100755.56;5102075;27;20115;-76
2023/07/19 11:27:03;;;;;;;2.25;1.05;;;;;;;25.45;75.15;100755.69;5098376;28;20040;-76
2023/07/19 11:29:52;;;;;;;3.25;1.45;;;;;;;25.47;74.51;100765.47;5081101;28;20032;-76
2023/07/19 11:32:38;;;;;;;1.88;0.98;;;;;;;25.51;74.65;100772.00;5091577;28;20423;-76
2023/07/19 11:35:27;;;;;;;3.55;1.17;;;;;;;25.49;75.32;100770.75;5109375;28;20437;-76
2023/07/19 11:38:17;;;;;;;3.78;1.10;;;;;;;25.48;75.63;100767.09;5098201;28;20055;-76
2023/07/19 11:41:03;;;;;;;3.15;1.20;;;;;;;25.48;77.20;100761.41;5071478;28;20032;-79
2023/07/19 11:43:50;;;;;;;2.22;1.13;;;;;;;25.51;76.43;100765.50;5084738;28;20507;-76
2023/07/19 11:46:36;;;;;;;3.55;1.13;;;;;;;25.59;75.87;100767.22;5074905;28;20035;-76
2023/07/19 11:49:22;;;;;;;3.10;1.20;;;;;;;25.59;78.14;100761.53;5067848;28;20053;-76
2023/07/19 11:52:09;;;;;;;2.67;1.20;;;;;;;25.72;78.43;100768.56;5080586;28;20043;-76
2023/07/19 11:54:55;;;;;;;4.15;1.20;;;;;;;25.84;77.59;100756.09;5095000;28;20372;-76
2023/07/19 11:57:42;;;;;;;3.22;1.30;;;;;;;25.99;77.06;100757.88;5095476;27;20497;-76
2023/07/19 12:00:28;;;;;;;2.33;0.70;;;;;;;26.15;75.71;100753.94;5083022;28;20047;-76
2023/07/19 12:03:14;;;;;;;2.38;0.90;;;;;;;26.28;75.43;100756.06;5084027;28;20073;-77
2023/07/19 12:06:00;;;;;;;2.20;1.00;;;;;;;26.43;73.32;100751.28;5088785;28;20104;-76
2023/07/19 12:08:46;;;;;;;1.50;0.70;;;;;;;26.50;76.04;100745.66;5083840;28;20040;-76
2023/07/19 12:11:32;;;;;;;1.52;0.77;;;;;;;26.64;73.21;100741.28;5074561;28;20078;-76
2023/07/19 12:14:18;;;;;;;1.83;0.80;;;;;;;26.74;72.05;100743.34;5089507;28;20040;-76
2023/07/19 12:17:06;;;;;;;2.05;0.57;;;;;;;26.97;71.16;100731.66;5093035;28;20095;-76
2023/07/19 12:19:53;;;;;;;2.08;0.82;;;;;;;27.20;69.47;100736.25;5090862;28;20038;-76
2023/07/19 12:22:42;;;;;;;1.60;0.93;;;;;;;27.22;69.67;100728.94;5092568;28;20040;-76
2023/07/19 12:25:28;;;;;;;1.52;0.73;;;;;;;27.46;69.01;100735.09;5094019;28;20043;-77
2023/07/19 12:28:15;;;;;;;0.95;0.52;;;;;;;27.67;67.62;100723.72;5063803;28;20035;-76
2023/07/19 12:31:01;;;;;;;1.73;0.60;;;;;;;27.84;69.37;100728.63;5082641;28;20407;-76
2023/07/19 12:33:47;;;;;;;1.48;0.60;;;;;;;28.07;66.46;100733.13;5088419;28;20042;-76
2023/07/19 12:36:33;;;;;;;4.20;0.63;;;;;;;28.25;66.90;100716.78;5088019;28;20066;-77
2023/07/19 12:39:21;;;;;;;2.35;0.65;;;;;;;28.45;63.69;100719.22;5110358;28;20036;-77
2023/07/19 12:42:08;;;;;;;1.67;0.60;;;;;;;28.44;61.83;100714.72;5116317;28;20097;-77
2023/07/19 12:44:54;;;;;;;1.65;0.65;;;;;;;28.38;60.89;100710.63;5088242;28;20480;-76
2023/07/19 12:47:40;;;;;;;1.30;0.88;;;;;;;28.31;60.29;100705.75;5078547;28;20039;-77